Time;durP1;ratioP1;P1;durP2;ratioP2;P2;SDS_P1;SDS_P2;PMS_P1;PMS_P2;Temp;Humidity;BMP_temperature;BMP_pressure;BME280_temperature;BME280_humidity;BME280_pressure;Samples;Min_cycle;Max_cycle;Signal;HPM_P1;HPM_P2
2021/05/13 00:00:28;;;;;;;1.23;1.13;;;;;;;;;;4992091;28;20121;-78
2021/05/13 00:02:53;;;;;;;1.13;1.02;;;;;;;;;;4989672;28;20057;-77
2021/05/13 00:05:19;;;;;;;1.08;1.00;;;;;;;;;;4991159;28;20072;-77
2021/05/13 00:07:44;;;;;;;1.10;1.10;;;;;;;;;;4992137;28;20022;-77
2021/05/13 00:10:11;;;;;;;1.20;1.10;;;;;;;;;;5010721;28;20026;-78
2021/05/13 00:12:39;;;;;;;1.07;0.93;;;;;;;;;;4983142;28;20057;-78
2021/05/13 00:15:11;;;;;;;1.27;1.00;;;;;;;;;;4977329;28;20263;-78
2021/05/13 00:17:37;;;;;;;1.08;1.00;;;;;;;;;;4994270;28;20034;-78
2021/05/13 00:20:04;;;;;;;1.30;1.20;;;;;;;;;;5013408;28;20079;-78
2021/05/13 00:22:32;;;;;;;1.67;1.48;;;;;;;;;;4987887;28;20653;-77
2021/05/13 00:24:59;;;;;;;;;;;;;;;;;;5017857;28;20025;-78
2021/05/13 00:27:25;;;;;;;1.73;1.40;;;;;;;;;;5008705;28;20016;-78
2021/05/13 00:29:51;;;;;;;3.40;1.88;;;;;;;;;;5014782;28;20050;-79
2021/05/13 00:32:16;;;;;;;2.70;1.92;;;;;;;;;;4999516;28;20022;-78
2021/05/13 00:34:41;;;;;;;2.53;1.80;;;;;;;;;;4995488;28;20029;-77
2021/05/13 00:37:06;;;;;;;2.20;1.63;;;;;;;;;;4995564;28;20018;-77
2021/05/13 00:39:32;;;;;;;2.72;1.90;;;;;;;;;;5011589;28;20112;-78
2021/05/13 00:41:57;;;;;;;4.38;2.72;;;;;;;;;;4994185;28;20049;-77
2021/05/13 00:44:22;;;;;;;4.18;2.60;;;;;;;;;;4994839;28;20041;-77
2021/05/13 00:46:49;;;;;;;3.05;2.00;;;;;;;;;;4994237;28;20083;-78
2021/05/13 00:49:16;;;;;;;2.25;1.70;;;;;;;;;;5007156;28;20034;-77
2021/05/13 00:51:41;;;;;;;1.48;1.38;;;;;;;;;;5003483;28;20074;-76
2021/05/13 00:54:06;;;;;;;1.52;1.40;;;;;;;;;;4992919;28;20026;-76
2021/05/13 00:56:32;;;;;;;1.60;1.30;;;;;;;;;;4993355;28;20085;-77
2021/05/13 00:59:01;;;;;;;1.42;1.20;;;;;;;;;;4991185;28;20065;-77
2021/05/13 01:01:37;;;;;;;1.63;1.20;;;;;;;;;;4993318;28;20026;-77
2021/05/13 01:04:03;;;;;;;1.55;1.20;;;;;;;;;;4991115;28;20531;-78
2021/05/13 01:06:28;;;;;;;1.20;1.10;;;;;;;;;;5010429;28;20056;-77
2021/05/13 01:08:55;;;;;;;2.20;1.30;;;;;;;;;;4989347;28;20139;-77
2021/05/13 01:11:21;;;;;;;;;;;;;;;;;;4989917;28;20025;-77
2021/05/13 01:13:50;;;;;;;1.08;1.08;;;;;;;;;;4980927;28;19919;-77
2021/05/13 01:16:32;;;;;;;1.25;1.00;;;;;;;;;;4986670;28;20018;-77
2021/05/13 01:18:59;;;;;;;0.80;0.80;;;;;;;;;;5015804;28;20030;-77
2021/05/13 01:21:24;;;;;;;0.90;0.90;;;;;;;;;;4994816;28;20503;-77
2021/05/13 01:23:49;;;;;;;0.80;0.80;;;;;;;;;;5011241;28;20105;-77
2021/05/13 01:26:17;;;;;;;1.00;0.90;;;;;;;;;;5008430;28;20030;-77
2021/05/13 01:28:45;;;;;;;0.95;0.88;;;;;;;;;;4995078;28;20104;-78
2021/05/13 01:31:10;;;;;;;;;;;;;;;;;;4993585;28;20021;-77
2021/05/13 01:33:36;;;;;;;0.70;0.70;;;;;;;;;;4994834;28;19960;-77
2021/05/13 01:36:01;;;;;;;0.80;0.80;;;;;;;;;;4991453;28;20026;-78
2021/05/13 01:38:26;;;;;;;0.80;0.80;;;;;;;;;;4993125;28;20056;-77
2021/05/13 01:40:58;;;;;;;0.80;0.80;;;;;;;;;;5011583;28;20061;-77
2021/05/13 01:43:27;;;;;;;1.08;0.98;;;;;;;;;;5009120;28;20034;-78
2021/05/13 01:45:52;;;;;;;0.80;0.80;;;;;;;;;;4993449;28;20117;-77
2021/05/13 01:48:20;;;;;;;0.80;0.80;;;;;;;;;;5000587;28;20529;-78
2021/05/13 01:50:45;;;;;;;;;;;;;;;;;;5006748;28;20022;-77
2021/05/13 01:53:13;;;;;;;0.90;0.90;;;;;;;;;;5012544;28;19909;-77
2021/05/13 01:55:38;;;;;;;0.77;0.77;;;;;;;;;;4995404;28;20036;-78
2021/05/13 01:58:04;;;;;;;0.70;0.70;;;;;;;;;;5011126;28;20025;-77
2021/05/13 02:00:30;;;;;;;0.77;0.77;;;;;;;;;;4992536;28;20021;-76
2021/05/13 02:02:55;;;;;;;0.70;0.70;;;;;;;;;;5010847;28;20151;-77
2021/05/13 02:05:22;;;;;;;0.90;0.90;;;;;;;;;;5010316;28;20073;-77
2021/05/13 02:07:47;;;;;;;0.70;0.70;;;;;;;;;;5010854;28;20509;-77
2021/05/13 02:10:13;;;;;;;0.77;0.77;;;;;;;;;;4984575;28;20022;-77
2021/05/13 02:12:39;;;;;;;0.80;0.80;;;;;;;;;;5010350;28;20107;-77
2021/05/13 02:15:05;;;;;;;0.75;0.75;;;;;;;;;;4992486;28;20326;-77
2021/05/13 02:17:31;;;;;;;0.70;0.70;;;;;;;;;;5010040;28;20111;-78
2021/05/13 02:19:56;;;;;;;0.77;0.77;;;;;;;;;;4992838;28;20057;-76
2021/05/13 02:22:21;;;;;;;0.80;0.80;;;;;;;;;;4993474;28;20017;-77
2021/05/13 02:24:46;;;;;;;0.60;0.60;;;;;;;;;;4994324;28;20255;-77
2021/05/13 02:27:12;;;;;;;0.88;0.88;;;;;;;;;;5016741;28;20025;-77
2021/05/13 02:29:37;;;;;;;0.95;0.80;;;;;;;;;;5025624;28;20021;-77
2021/05/13 02:32:02;;;;;;;0.65;0.65;;;;;;;;;;5001206;28;20028;-77
2021/05/13 02:34:27;;;;;;;0.80;0.80;;;;;;;;;;4996559;28;20408;-77
2021/05/13 02:36:53;;;;;;;0.70;0.70;;;;;;;;;;5018589;28;20234;-77
2021/05/13 02:39:20;;;;;;;0.70;0.70;;;;;;;;;;5009006;28;20025;-77
2021/05/13 02:41:46;;;;;;;0.90;0.90;;;;;;;;;;4993256;28;20030;-78
2021/05/13 02:44:11;;;;;;;0.80;0.80;;;;;;;;;;4993358;28;20033;-77
2021/05/13 02:46:36;;;;;;;0.80;0.80;;;;;;;;;;5001867;28;20579;-78
2021/05/13 02:49:03;;;;;;;1.02;1.00;;;;;;;;;;4994790;28;20534;-77
2021/05/13 02:51:28;;;;;;;1.20;1.10;;;;;;;;;;4976383;28;20060;-78
2021/05/13 02:53:53;;;;;;;1.05;1.05;;;;;;;;;;4993321;28;20049;-78
2021/05/13 02:56:19;;;;;;;0.98;0.98;;;;;;;;;;4989638;28;20075;-78
2021/05/13 02:58:46;;;;;;;0.95;0.95;;;;;;;;;;5015919;28;20025;-78
2021/05/13 03:01:29;;;;;;;;;;;;;;;;;;5000855;28;20036;-78
2021/05/13 03:03:55;;;;;;;0.80;0.80;;;;;;;;;;5008497;28;19971;-77
2021/05/13 03:06:21;;;;;;;0.73;0.73;;;;;;;;;;5010377;28;20061;-78
2021/05/13 03:08:50;;;;;;;0.70;0.70;;;;;;;;;;5016181;28;20036;-77
2021/05/13 03:11:15;;;;;;;0.75;0.75;;;;;;;;;;4994649;28;20353;-78
2021/05/13 03:13:40;;;;;;;0.70;0.70;;;;;;;;;;4980227;28;20534;-78
2021/05/13 03:16:06;;;;;;;0.80;0.80;;;;;;;;;;5011152;28;20136;-78
2021/05/13 03:18:33;;;;;;;0.90;0.90;;;;;;;;;;4992084;28;20033;-78
2021/05/13 03:23:40;;;;;;;0.73;0.73;;;;;;;;;;5006946;28;20026;-78
2021/05/13 03:26:05;;;;;;;0.77;0.77;;;;;;;;;;4989462;28;20030;-78
2021/05/13 03:28:31;;;;;;;0.80;0.80;;;;;;;;;;5007466;28;20030;-78
2021/05/13 03:30:58;;;;;;;0.70;0.70;;;;;;;;;;4995952;28;20060;-78
2021/05/13 03:33:23;;;;;;;;;;;;;;;;;;4995445;28;20026;-78
2021/05/13 03:35:49;;;;;;;1.10;0.90;;;;;;;;;;5011470;28;19920;-77
2021/05/13 03:38:14;;;;;;;0.75;0.75;;;;;;;;;;5014269;28;20315;-78
2021/05/13 03:40:40;;;;;;;0.90;0.80;;;;;;;;;;4994139;28;20037;-77
2021/05/13 03:43:05;;;;;;;0.80;0.80;;;;;;;;;;5014444;28;20487;-78
2021/05/13 03:45:30;;;;;;;0.70;0.70;;;;;;;;;;5017583;28;20045;-77
2021/05/13 03:47:56;;;;;;;0.70;0.70;;;;;;;;;;4999076;28;20062;-78
2021/05/13 03:50:24;;;;;;;0.68;0.68;;;;;;;;;;5005828;28;20089;-77
2021/05/13 03:52:49;;;;;;;0.75;0.70;;;;;;;;;;5029395;28;20021;-78
2021/05/13 03:55:14;;;;;;;0.80;0.80;;;;;;;;;;5006591;28;20545;-78
2021/05/13 03:57:41;;;;;;;0.80;0.80;;;;;;;;;;5016435;28;20022;-78
2021/05/13 04:00:09;;;;;;;0.80;0.80;;;;;;;;;;5016819;28;20014;-78
2021/05/13 04:02:35;;;;;;;1.00;0.80;;;;;;;;;;4997632;28;20027;-77
2021/05/13 04:05:00;;;;;;;0.80;0.80;;;;;;;;;;5015172;28;20037;-77
2021/05/13 04:07:30;;;;;;;0.70;0.70;;;;;;;;;;5014142;28;20021;-77
2021/05/13 04:09:56;;;;;;;0.80;0.80;;;;;;;;;;4994777;28;20561;-77
2021/05/13 04:12:21;;;;;;;0.70;0.70;;;;;;;;;;5012732;28;20077;-78
2021/05/13 04:14:46;;;;;;;0.73;0.73;;;;;;;;;;5012515;28;20503;-78
2021/05/13 04:17:11;;;;;;;0.65;0.65;;;;;;;;;;5012451;28;20018;-78
2021/05/13 04:19:37;;;;;;;0.70;0.70;;;;;;;;;;4995780;28;20571;-78
2021/05/13 04:22:02;;;;;;;0.85;0.80;;;;;;;;;;5013423;28;20617;-79
2021/05/13 04:24:28;;;;;;;0.70;0.70;;;;;;;;;;5012832;28;20048;-78
2021/05/13 04:26:53;;;;;;;0.60;0.60;;;;;;;;;;4981271;28;20047;-78
2021/05/13 04:29:18;;;;;;;0.73;0.73;;;;;;;;;;5007705;28;20018;-77
2021/05/13 04:31:46;;;;;;;0.80;0.80;;;;;;;;;;4994687;28;20032;-77
2021/05/13 04:34:11;;;;;;;;;;;;;;;;;;5011384;28;20028;-78
2021/05/13 04:36:36;;;;;;;0.90;0.90;;;;;;;;;;4993788;28;20008;-78
2021/05/13 04:39:05;;;;;;;0.80;0.80;;;;;;;;;;5001269;28;20052;-77
2021/05/13 04:41:33;;;;;;;0.70;0.70;;;;;;;;;;5013054;28;20506;-78
2021/05/13 04:44:01;;;;;;;0.70;0.70;;;;;;;;;;4995280;28;20036;-78
2021/05/13 04:46:30;;;;;;;0.80;0.80;;;;;;;;;;4992788;28;20030;-78
2021/05/13 04:51:25;;;;;;;0.60;0.60;;;;;;;;;;5011897;28;20057;-80
2021/05/13 04:53:50;;;;;;;0.60;0.60;;;;;;;;;;4994189;28;20018;-77
2021/05/13 04:56:16;;;;;;;0.70;0.70;;;;;;;;;;4997007;28;20036;-77
2021/05/13 04:58:41;;;;;;;0.65;0.65;;;;;;;;;;4999981;28;20057;-78
2021/05/13 05:01:07;;;;;;;0.70;0.70;;;;;;;;;;4994730;28;20044;-77
2021/05/13 05:03:32;;;;;;;0.70;0.70;;;;;;;;;;5013698;28;20537;-78
2021/05/13 05:05:57;;;;;;;0.60;0.60;;;;;;;;;;5011886;28;20030;-79
2021/05/13 05:08:22;;;;;;;0.77;0.68;;;;;;;;;;4979222;28;20070;-78
2021/05/13 05:10:48;;;;;;;0.63;0.63;;;;;;;;;;4995556;28;20026;-78
2021/05/13 05:13:15;;;;;;;0.57;0.57;;;;;;;;;;4992399;28;20089;-78
2021/05/13 05:15:41;;;;;;;0.70;0.70;;;;;;;;;;4975620;28;20041;-78
2021/05/13 05:18:08;;;;;;;0.60;0.60;;;;;;;;;;4992019;28;20472;-78
2021/05/13 05:20:33;;;;;;;;;;;;;;;;;;4981406;28;20030;-78
2021/05/13 05:22:59;;;;;;;0.70;0.70;;;;;;;;;;4974858;28;19912;-78
2021/05/13 05:25:24;;;;;;;0.55;0.55;;;;;;;;;;4993937;28;20037;-78
2021/05/13 05:27:49;;;;;;;0.52;0.52;;;;;;;;;;5016706;28;20021;-78
2021/05/13 05:30:15;;;;;;;0.60;0.60;;;;;;;;;;4990864;28;20068;-78
2021/05/13 05:32:40;;;;;;;0.65;0.65;;;;;;;;;;4998379;28;20022;-78
2021/05/13 05:35:06;;;;;;;0.50;0.50;;;;;;;;;;5017542;28;20024;-77
2021/05/13 05:37:31;;;;;;;0.60;0.60;;;;;;;;;;4996554;28;20033;-79
2021/05/13 05:39:57;;;;;;;0.55;0.55;;;;;;;;;;5010112;28;20056;-79
2021/05/13 05:42:22;;;;;;;0.50;0.50;;;;;;;;;;5011768;28;20084;-78
2021/05/13 05:44:47;;;;;;;0.60;0.60;;;;;;;;;;4994901;28;20025;-78
2021/05/13 05:47:16;;;;;;;0.82;0.65;;;;;;;;;;5008375;28;20030;-78
2021/05/13 05:49:41;;;;;;;0.60;0.60;;;;;;;;;;4994189;28;20060;-78
2021/05/13 05:52:06;;;;;;;0.60;0.60;;;;;;;;;;4994547;28;20050;-78
2021/05/13 05:54:32;;;;;;;0.65;0.65;;;;;;;;;;4994325;28;20022;-79
2021/05/13 05:56:57;;;;;;;0.63;0.60;;;;;;;;;;4993784;28;20453;-78
2021/05/13 05:59:22;;;;;;;0.65;0.65;;;;;;;;;;5006224;28;20087;-78
2021/05/13 06:01:47;;;;;;;0.73;0.73;;;;;;;;;;5011224;28;20034;-78
2021/05/13 06:04:13;;;;;;;0.60;0.60;;;;;;;;;;5009885;28;20176;-78
2021/05/13 06:06:38;;;;;;;0.70;0.70;;;;;;;;;;4993271;28;20028;-78
2021/05/13 06:09:04;;;;;;;0.68;0.60;;;;;;;;;;4980003;28;20044;-78
2021/05/13 06:11:29;;;;;;;0.47;0.47;;;;;;;;;;4992090;28;20023;-78
2021/05/13 06:13:54;;;;;;;0.60;0.60;;;;;;;;;;5006227;28;20104;-78
2021/05/13 06:16:20;;;;;;;0.60;0.60;;;;;;;;;;4994010;28;20399;-79
2021/05/13 06:18:49;;;;;;;0.70;0.70;;;;;;;;;;4987150;28;20036;-79
2021/05/13 06:21:14;;;;;;;0.50;0.50;;;;;;;;;;4994077;28;20029;-78
2021/05/13 06:23:40;;;;;;;0.60;0.60;;;;;;;;;;4993677;28;20068;-78
2021/05/13 06:26:05;;;;;;;0.50;0.50;;;;;;;;;;4995683;28;20033;-78
2021/05/13 06:28:30;;;;;;;0.60;0.60;;;;;;;;;;5011801;28;20034;-79
2021/05/13 06:30:55;;;;;;;0.50;0.50;;;;;;;;;;5013119;28;20022;-79
2021/05/13 06:33:20;;;;;;;0.65;0.55;;;;;;;;;;5012546;28;20025;-78
2021/05/13 06:35:46;;;;;;;0.65;0.65;;;;;;;;;;5012194;28;21287;-79
2021/05/13 06:38:11;;;;;;;0.50;0.50;;;;;;;;;;5009916;28;20026;-78
2021/05/13 06:40:36;;;;;;;0.60;0.60;;;;;;;;;;4995278;28;20054;-79
2021/05/13 06:43:01;;;;;;;0.60;0.60;;;;;;;;;;4983994;28;20556;-78
2021/05/13 06:45:27;;;;;;;0.50;0.50;;;;;;;;;;5011138;28;20030;-78
2021/05/13 06:47:52;;;;;;;0.50;0.50;;;;;;;;;;4989285;28;20022;-78
2021/05/13 06:50:19;;;;;;;0.50;0.50;;;;;;;;;;4990395;28;20224;-78
2021/05/13 06:52:44;;;;;;;0.93;0.73;;;;;;;;;;5010215;28;20476;-78
2021/05/13 06:55:09;;;;;;;0.60;0.60;;;;;;;;;;5017567;28;20025;-78
2021/05/13 06:57:35;;;;;;;0.50;0.50;;;;;;;;;;4994447;28;20034;-79
2021/05/13 07:00:03;;;;;;;0.40;0.40;;;;;;;;;;5011435;28;20020;-78
2021/05/13 07:02:30;;;;;;;0.40;0.40;;;;;;;;;;5011814;28;20080;-78
2021/05/13 07:04:55;;;;;;;0.50;0.50;;;;;;;;;;4991398;28;20029;-78
2021/05/13 07:07:21;;;;;;;0.70;0.70;;;;;;;;;;4999336;28;20037;-78
2021/05/13 07:09:46;;;;;;;0.60;0.60;;;;;;;;;;4989800;28;20034;-78
2021/05/13 07:12:12;;;;;;;0.40;0.40;;;;;;;;;;5003343;28;20022;-78
2021/05/13 07:14:37;;;;;;;0.50;0.50;;;;;;;;;;5011091;28;20033;-79
2021/05/13 07:17:02;;;;;;;0.50;0.50;;;;;;;;;;4997377;28;20022;-79
2021/05/13 07:19:27;;;;;;;0.55;0.55;;;;;;;;;;4993214;28;20028;-79
2021/05/13 07:21:55;;;;;;;0.45;0.45;;;;;;;;;;4996121;28;20037;-80
2021/05/13 07:24:20;;;;;;;;;;;;;;;;;;4998722;28;20021;-79
2021/05/13 07:26:45;;;;;;;0.50;0.50;;;;;;;;;;5013982;28;19917;-79
2021/05/13 07:29:12;;;;;;;0.50;0.50;;;;;;;;;;5012644;28;20138;-79
2021/05/13 07:31:38;;;;;;;0.50;0.50;;;;;;;;;;4992158;28;20022;-79
2021/05/13 07:34:03;;;;;;;0.50;0.50;;;;;;;;;;5007203;28;20029;-79
2021/05/13 07:36:28;;;;;;;0.50;0.50;;;;;;;;;;4990297;28;20038;-79
2021/05/13 07:38:54;;;;;;;0.40;0.40;;;;;;;;;;5010700;28;20022;-79
2021/05/13 07:41:20;;;;;;;0.40;0.40;;;;;;;;;;4990719;28;20081;-80
2021/05/13 07:43:45;;;;;;;0.40;0.40;;;;;;;;;;4996958;28;20026;-78
2021/05/13 07:46:10;;;;;;;0.40;0.40;;;;;;;;;;4995332;28;20036;-79
2021/05/13 07:48:36;;;;;;;0.40;0.40;;;;;;;;;;5000527;28;20038;-79
2021/05/13 07:51:02;;;;;;;0.40;0.40;;;;;;;;;;4991996;28;20017;-80
2021/05/13 07:53:27;;;;;;;0.40;0.40;;;;;;;;;;4984230;28;20080;-78
2021/05/13 07:55:55;;;;;;;0.47;0.47;;;;;;;;;;4990014;28;20050;-77
2021/05/13 07:58:23;;;;;;;0.50;0.50;;;;;;;;;;4989444;28;20057;-79
2021/05/13 08:00:49;;;;;;;0.30;0.30;;;;;;;;;;4989509;28;20030;-79
2021/05/13 08:03:15;;;;;;;0.40;0.40;;;;;;;;;;5008193;28;20028;-78
2021/05/13 08:05:40;;;;;;;0.40;0.40;;;;;;;;;;5007959;28;20018;-79
2021/05/13 08:08:06;;;;;;;0.73;0.50;;;;;;;;;;5019938;28;20019;-79
2021/05/13 08:10:38;;;;;;;0.50;0.50;;;;;;;;;;5002552;28;20014;-79
2021/05/13 08:13:15;;;;;;;0.40;0.40;;;;;;;;;;5001241;28;20026;-77
2021/05/13 08:15:40;;;;;;;0.65;0.65;;;;;;;;;;5011915;28;20412;-79
2021/05/13 08:18:06;;;;;;;0.40;0.40;;;;;;;;;;5005919;28;20101;-79
2021/05/13 08:20:31;;;;;;;0.40;0.40;;;;;;;;;;5005698;28;20042;-78
2021/05/13 08:22:56;;;;;;;0.40;0.40;;;;;;;;;;5020317;28;20116;-78
2021/05/13 08:25:24;;;;;;;0.30;0.30;;;;;;;;;;5011194;28;20109;-78
2021/05/13 08:27:49;;;;;;;0.45;0.45;;;;;;;;;;4980199;28;20102;-78
2021/05/13 08:30:15;;;;;;;0.30;0.30;;;;;;;;;;4978047;28;20117;-79
2021/05/13 08:32:40;;;;;;;0.40;0.40;;;;;;;;;;4992814;28;20030;-79
2021/05/13 08:35:06;;;;;;;0.40;0.40;;;;;;;;;;5011992;28;20021;-78
2021/05/13 08:37:31;;;;;;;0.35;0.35;;;;;;;;;;4996872;28;20026;-78
2021/05/13 08:39:56;;;;;;;0.38;0.38;;;;;;;;;;4989741;28;20166;-79
2021/05/13 08:42:22;;;;;;;0.30;0.30;;;;;;;;;;5019741;28;20009;-77
2021/05/13 08:44:47;;;;;;;0.30;0.30;;;;;;;;;;5001334;28;20029;-76
2021/05/13 08:47:12;;;;;;;0.30;0.30;;;;;;;;;;5010884;28;20026;-76
2021/05/13 08:49:38;;;;;;;0.40;0.40;;;;;;;;;;4988403;28;20030;-77
2021/05/13 08:52:04;;;;;;;0.30;0.30;;;;;;;;;;5005835;28;20037;-77
2021/05/13 08:54:30;;;;;;;0.32;0.32;;;;;;;;;;5008507;28;20030;-77
2021/05/13 08:56:55;;;;;;;0.40;0.40;;;;;;;;;;4989898;28;20131;-77
2021/05/13 08:59:21;;;;;;;0.35;0.35;;;;;;;;;;4988158;28;20026;-77
2021/05/13 09:01:57;;;;;;;0.32;0.32;;;;;;;;;;4973783;28;20018;-77
2021/05/13 09:04:22;;;;;;;0.90;0.40;;;;;;;;;;5008386;28;20017;-76
2021/05/13 09:06:48;;;;;;;0.40;0.40;;;;;;;;;;5001945;28;20511;-76
2021/05/13 09:09:13;;;;;;;0.30;0.30;;;;;;;;;;4985632;28;20392;-76
2021/05/13 09:11:47;;;;;;;0.32;0.32;;;;;;;;;;5007962;28;20562;-76
2021/05/13 09:14:12;;;;;;;0.40;0.40;;;;;;;;;;4988734;28;20026;-76
2021/05/13 09:16:38;;;;;;;0.30;0.30;;;;;;;;;;4980459;28;20030;-77
2021/05/13 09:19:23;;;;;;;0.85;0.40;;;;;;;;;;5007343;28;20030;-77
2021/05/13 09:21:58;;;;;;;0.40;0.40;;;;;;;;;;4970139;28;20049;-77
2021/05/13 09:24:42;;;;;;;0.50;0.50;;;;;;;;;;4977657;28;20029;-77
2021/05/13 09:27:17;;;;;;;0.30;0.30;;;;;;;;;;4988091;28;20096;-76
2021/05/13 09:29:45;;;;;;;0.38;0.38;;;;;;;;;;4981232;28;20479;-77
2021/05/13 09:32:21;;;;;;;0.30;0.30;;;;;;;;;;4990686;28;20028;-77
2021/05/13 09:34:46;;;;;;;0.30;0.30;;;;;;;;;;5010014;28;20021;-77
2021/05/13 09:37:12;;;;;;;0.20;0.20;;;;;;;;;;5010901;28;20029;-77
2021/05/13 09:39:44;;;;;;;0.30;0.30;;;;;;;;;;4991938;28;20025;-76
2021/05/13 09:42:09;;;;;;;0.30;0.30;;;;;;;;;;5006064;28;20018;-76
2021/05/13 09:44:35;;;;;;;0.20;0.20;;;;;;;;;;5006605;28;20026;-77
2021/05/13 09:47:14;;;;;;;0.20;0.20;;;;;;;;;;4974745;28;20061;-76
2021/05/13 09:49:55;;;;;;;0.30;0.30;;;;;;;;;;4986737;28;20033;-76
2021/05/13 09:52:39;;;;;;;0.90;0.30;;;;;;;;;;5008884;28;20446;-76
2021/05/13 09:55:31;;;;;;;0.50;0.50;;;;;;;;;;4988498;28;20030;-76
2021/05/13 09:58:05;;;;;;;0.35;0.35;;;;;;;;;;4979645;28;20361;-76
2021/05/13 10:00:35;;;;;;;0.30;0.30;;;;;;;;;;4987681;28;20343;-76
2021/05/13 10:03:01;;;;;;;0.30;0.30;;;;;;;;;;5006212;28;20022;-77
2021/05/13 10:05:27;;;;;;;0.52;0.40;;;;;;;;;;5003781;28;20056;-76
2021/05/13 10:07:52;;;;;;;0.28;0.28;;;;;;;;;;4992333;28;20121;-76
2021/05/13 10:10:18;;;;;;;0.50;0.50;;;;;;;;;;5003372;28;20022;-77
2021/05/13 10:12:46;;;;;;;0.47;0.47;;;;;;;;;;5005556;28;20052;-78
2021/05/13 10:15:12;;;;;;;0.40;0.40;;;;;;;;;;5003184;28;20018;-76
2021/05/13 10:17:40;;;;;;;0.30;0.30;;;;;;;;;;4989870;28;20037;-77
2021/05/13 10:20:05;;;;;;;0.30;0.30;;;;;;;;;;5005339;28;20022;-77
2021/05/13 10:22:31;;;;;;;0.85;0.85;;;;;;;;;;4980796;28;20400;-78
2021/05/13 10:25:15;;;;;;;0.20;0.20;;;;;;;;;;4976129;28;20382;-78
2021/05/13 10:27:40;;;;;;;0.28;0.28;;;;;;;;;;4995850;28;20420;-79
2021/05/13 10:30:05;;;;;;;0.30;0.30;;;;;;;;;;4975535;28;20036;-78
2021/05/13 10:32:31;;;;;;;0.40;0.40;;;;;;;;;;4985408;28;20061;-78
2021/05/13 10:34:57;;;;;;;0.22;0.22;;;;;;;;;;5003422;28;20013;-78
2021/05/13 10:37:35;;;;;;;0.40;0.40;;;;;;;;;;5011994;28;20025;-78
2021/05/13 10:40:22;;;;;;;0.30;0.30;;;;;;;;;;5009402;28;20025;-78
2021/05/13 10:43:00;;;;;;;0.30;0.30;;;;;;;;;;4973873;28;20045;-78
2021/05/13 10:45:26;;;;;;;0.40;0.40;;;;;;;;;;4973061;28;20035;-78
2021/05/13 10:48:10;;;;;;;0.32;0.30;;;;;;;;;;4988338;28;20480;-78
2021/05/13 10:50:55;;;;;;;0.30;0.30;;;;;;;;;;4994399;28;20025;-78
2021/05/13 10:56:10;;;;;;;0.70;0.70;;;;;;;;;;5011572;28;20054;-78
2021/05/13 10:58:51;;;;;;;0.25;0.25;;;;;;;;;;4994906;28;20030;-78
2021/05/13 11:01:28;;;;;;;0.30;0.30;;;;;;;;;;4994109;28;20037;-78
2021/05/13 11:04:12;;;;;;;0.30;0.30;;;;;;;;;;4994164;28;20017;-78
2021/05/13 11:06:44;;;;;;;0.30;0.30;;;;;;;;;;4985964;28;20037;-78
2021/05/13 11:09:09;;;;;;;0.30;0.30;;;;;;;;;;4979677;28;20392;-78
2021/05/13 11:11:53;;;;;;;0.30;0.30;;;;;;;;;;5009089;28;20468;-78
2021/05/13 11:14:21;;;;;;;0.20;0.20;;;;;;;;;;4990819;28;20288;-78
2021/05/13 11:16:55;;;;;;;0.20;0.20;;;;;;;;;;5017211;28;20076;-78
2021/05/13 11:19:21;;;;;;;0.20;0.20;;;;;;;;;;4997929;28;20093;-78
2021/05/13 11:21:57;;;;;;;0.30;0.30;;;;;;;;;;4993315;28;20026;-78
2021/05/13 11:24:23;;;;;;;0.30;0.30;;;;;;;;;;5012362;28;20040;-78
2021/05/13 11:26:55;;;;;;;0.20;0.20;;;;;;;;;;5011285;28;20025;-79
2021/05/13 11:29:20;;;;;;;0.20;0.20;;;;;;;;;;4992005;28;20136;-78
2021/05/13 11:31:49;;;;;;;0.30;0.30;;;;;;;;;;5006854;28;20094;-78
2021/05/13 11:34:15;;;;;;;0.30;0.30;;;;;;;;;;5012271;28;20033;-78
2021/05/13 11:36:40;;;;;;;0.35;0.35;;;;;;;;;;5016534;28;20018;-78
2021/05/13 11:39:09;;;;;;;0.40;0.40;;;;;;;;;;4999224;28;20045;-78
2021/05/13 11:41:35;;;;;;;0.30;0.30;;;;;;;;;;4998537;28;20491;-78
2021/05/13 11:44:00;;;;;;;0.30;0.30;;;;;;;;;;5009068;28;20022;-78
2021/05/13 11:46:27;;;;;;;1.35;0.47;;;;;;;;;;5009857;28;20058;-78
2021/05/13 11:48:55;;;;;;;0.30;0.30;;;;;;;;;;4993235;28;20017;-77
2021/05/13 11:51:21;;;;;;;0.50;0.50;;;;;;;;;;5011766;28;20065;-78
2021/05/13 11:53:47;;;;;;;0.40;0.40;;;;;;;;;;5006206;28;20472;-78
2021/05/13 11:56:15;;;;;;;0.40;0.40;;;;;;;;;;5001972;28;20072;-78
2021/05/13 11:58:46;;;;;;;0.40;0.40;;;;;;;;;;4997770;28;20571;-78
2021/05/13 12:01:17;;;;;;;0.30;0.30;;;;;;;;;;4996347;28;20116;-79
2021/05/13 12:03:46;;;;;;;0.30;0.30;;;;;;;;;;5012296;28;20062;-79
2021/05/13 12:06:12;;;;;;;0.30;0.30;;;;;;;;;;5020904;28;20479;-79
2021/05/13 12:08:38;;;;;;;0.20;0.20;;;;;;;;;;5004236;28;20041;-79
2021/05/13 12:11:15;;;;;;;0.25;0.25;;;;;;;;;;5021644;28;20053;-79
2021/05/13 12:13:41;;;;;;;0.15;0.15;;;;;;;;;;5004810;28;20041;-79
2021/05/13 12:16:06;;;;;;;0.30;0.30;;;;;;;;;;5002848;28;20021;-79
2021/05/13 12:18:31;;;;;;;0.20;0.20;;;;;;;;;;5019718;28;20025;-79
2021/05/13 12:20:57;;;;;;;0.20;0.20;;;;;;;;;;5019138;28;20101;-79
2021/05/13 12:23:23;;;;;;;0.10;0.10;;;;;;;;;;5000959;28;20438;-79
2021/05/13 12:25:50;;;;;;;0.10;0.10;;;;;;;;;;5021365;28;20060;-79
2021/05/13 12:28:16;;;;;;;0.20;0.20;;;;;;;;;;5003530;28;20614;-78
2021/05/13 12:30:49;;;;;;;0.30;0.30;;;;;;;;;;5005419;28;20538;-78
2021/05/13 12:33:21;;;;;;;0.20;0.20;;;;;;;;;;5014894;28;20030;-78
2021/05/13 12:35:50;;;;;;;0.22;0.22;;;;;;;;;;4996133;28;20492;-78
2021/05/13 12:38:17;;;;;;;0.20;0.20;;;;;;;;;;5015096;28;20030;-78
2021/05/13 12:40:43;;;;;;;0.20;0.20;;;;;;;;;;5019997;28;20038;-78
2021/05/13 12:43:18;;;;;;;0.23;0.23;;;;;;;;;;5029964;28;20029;-77
2021/05/13 12:45:45;;;;;;;0.10;0.10;;;;;;;;;;5007030;28;20024;-77
2021/05/13 12:48:11;;;;;;;0.30;0.30;;;;;;;;;;5023783;28;20030;-78
2021/05/13 12:50:37;;;;;;;0.22;0.22;;;;;;;;;;5022145;28;20021;-78
2021/05/13 12:53:09;;;;;;;0.25;0.25;;;;;;;;;;5007563;28;20088;-78
2021/05/13 12:55:38;;;;;;;0.20;0.20;;;;;;;;;;4999641;28;20069;-78
2021/05/13 12:58:08;;;;;;;0.30;0.30;;;;;;;;;;5017697;28;20022;-78
2021/05/13 13:00:35;;;;;;;0.20;0.20;;;;;;;;;;5014995;28;20029;-79
2021/05/13 13:03:12;;;;;;;0.20;0.20;;;;;;;;;;4996454;28;20415;-78
2021/05/13 13:05:37;;;;;;;0.20;0.20;;;;;;;;;;5004578;28;20364;-78
2021/05/13 13:08:02;;;;;;;0.28;0.28;;;;;;;;;;5011320;28;20025;-78
2021/05/13 13:10:35;;;;;;;0.20;0.20;;;;;;;;;;5012635;28;20391;-78
2021/05/13 13:13:06;;;;;;;0.20;0.20;;;;;;;;;;5017020;28;20026;-78
2021/05/13 13:15:34;;;;;;;0.28;0.28;;;;;;;;;;4991352;28;20434;-78
2021/05/13 13:18:00;;;;;;;0.28;0.28;;;;;;;;;;4993306;28;20128;-79
2021/05/13 13:20:28;;;;;;;0.20;0.20;;;;;;;;;;4997401;28;20510;-78
2021/05/13 13:22:53;;;;;;;0.20;0.20;;;;;;;;;;5012610;28;20535;-77
2021/05/13 13:25:18;;;;;;;0.28;0.28;;;;;;;;;;5018223;28;20080;-78
2021/05/13 13:27:43;;;;;;;0.30;0.30;;;;;;;;;;5001320;28;20060;-79
2021/05/13 13:30:18;;;;;;;0.30;0.30;;;;;;;;;;5014103;28;20034;-78
2021/05/13 13:32:44;;;;;;;0.47;0.30;;;;;;;;;;4987623;28;20550;-78
2021/05/13 13:35:11;;;;;;;0.30;0.30;;;;;;;;;;4993502;28;20029;-78
2021/05/13 13:37:40;;;;;;;0.20;0.20;;;;;;;;;;4993501;28;20033;-78
2021/05/13 13:40:05;;;;;;;0.40;0.40;;;;;;;;;;4996970;28;20026;-78
2021/05/13 13:42:31;;;;;;;0.40;0.40;;;;;;;;;;4982315;28;20064;-78
2021/05/13 13:44:56;;;;;;;0.28;0.28;;;;;;;;;;4986106;28;20077;-77
2021/05/13 13:47:22;;;;;;;0.40;0.40;;;;;;;;;;5017780;28;20026;-77
2021/05/13 13:49:47;;;;;;;0.32;0.32;;;;;;;;;;4990739;28;20033;-77
2021/05/13 13:52:15;;;;;;;0.25;0.25;;;;;;;;;;4989496;28;20395;-77
2021/05/13 13:54:40;;;;;;;0.20;0.20;;;;;;;;;;5006252;28;20037;-77
2021/05/13 13:57:06;;;;;;;0.32;0.32;;;;;;;;;;5006995;28;20022;-76
2021/05/13 13:59:31;;;;;;;0.30;0.30;;;;;;;;;;5004457;28;20055;-77
2021/05/13 14:01:56;;;;;;;0.30;0.30;;;;;;;;;;5010350;28;20518;-77
2021/05/13 14:04:21;;;;;;;0.20;0.20;;;;;;;;;;5011068;28;20025;-77
2021/05/13 14:06:47;;;;;;;0.30;0.30;;;;;;;;;;4989421;28;20415;-76
2021/05/13 14:09:12;;;;;;;0.30;0.30;;;;;;;;;;4994805;28;20081;-77
2021/05/13 14:11:38;;;;;;;0.30;0.30;;;;;;;;;;4986437;28;20496;-77
2021/05/13 14:14:04;;;;;;;0.30;0.30;;;;;;;;;;5022055;28;20368;-77
2021/05/13 14:16:29;;;;;;;0.20;0.20;;;;;;;;;;5002953;28;20104;-77
2021/05/13 14:18:55;;;;;;;0.30;0.30;;;;;;;;;;4991592;28;20029;-76
2021/05/13 14:21:20;;;;;;;0.52;0.52;;;;;;;;;;5009439;28;20029;-76
2021/05/13 14:23:45;;;;;;;0.30;0.30;;;;;;;;;;5007753;28;20048;-75
2021/05/13 14:26:10;;;;;;;0.30;0.30;;;;;;;;;;5008949;28;20285;-77
2021/05/13 14:28:36;;;;;;;0.30;0.30;;;;;;;;;;5007824;28;20396;-76
2021/05/13 14:31:01;;;;;;;0.40;0.40;;;;;;;;;;4989641;28;20092;-77
2021/05/13 14:33:26;;;;;;;0.47;0.47;;;;;;;;;;5005497;28;20046;-75
2021/05/13 14:35:52;;;;;;;0.30;0.30;;;;;;;;;;5005673;28;20049;-77
2021/05/13 14:38:17;;;;;;;0.30;0.30;;;;;;;;;;4991669;28;20365;-74
2021/05/13 14:40:43;;;;;;;0.40;0.40;;;;;;;;;;5006931;28;20551;-74
2021/05/13 14:43:09;;;;;;;0.30;0.30;;;;;;;;;;4991984;28;20030;-75
2021/05/13 14:45:34;;;;;;;0.30;0.30;;;;;;;;;;4978107;28;20026;-75
2021/05/13 14:48:13;;;;;;;0.32;0.32;;;;;;;;;;5003458;28;20029;-77
2021/05/13 14:50:38;;;;;;;0.30;0.30;;;;;;;;;;5008921;28;20129;-78
2021/05/13 14:53:03;;;;;;;0.25;0.25;;;;;;;;;;4999873;28;20050;-78